sensor_id;sensor_type;location;lat;lon;timestamp;pressure;altitude;pressure_sealevel;temperature
68027;BMP180;54819;48.030;14.710;2023-06-19T00:01:40;97356.40;;;17.20
68027;BMP180;54819;48.030;14.710;2023-06-19T00:04:06;97352.80;;;17.20
68027;BMP180;54819;48.030;14.710;2023-06-19T00:06:33;97358.00;;;17.20
68027;BMP180;54819;48.030;14.710;2023-06-19T00:09:00;97361.00;;;17.10
68027;BMP180;54819;48.030;14.710;2023-06-19T00:11:27;97356.40;;;17.10
68027;BMP180;54819;48.030;14.710;2023-06-19T00:13:53;97355.80;;;17.08
68027;BMP180;54819;48.030;14.710;2023-06-19T00:16:20;97357.80;;;17.00
68027;BMP180;54819;48.030;14.710;2023-06-19T00:18:47;97361.00;;;17.00
68027;BMP180;54819;48.030;14.710;2023-06-19T00:21:14;97357.40;;;17.00
68027;BMP180;54819;48.030;14.710;2023-06-19T00:23:40;97362.80;;;16.90
68027;BMP180;54819;48.030;14.710;2023-06-19T00:26:07;97366.20;;;16.90
68027;BMP180;54819;48.030;14.710;2023-06-19T00:28:34;97361.40;;;16.80
68027;BMP180;54819;48.030;14.710;2023-06-19T00:31:05;97361.60;;;16.78
68027;BMP180;54819;48.030;14.710;2023-06-19T00:33:33;97358.60;;;16.70
68027;BMP180;54819;48.030;14.710;2023-06-19T00:36:00;97356.40;;;16.70
68027;BMP180;54819;48.030;14.710;2023-06-19T00:38:27;97352.00;;;16.70
68027;BMP180;54819;48.030;14.710;2023-06-19T00:40:54;97351.80;;;16.70
68027;BMP180;54819;48.030;14.710;2023-06-19T00:43:21;97352.00;;;16.70
68027;BMP180;54819;48.030;14.710;2023-06-19T00:45:47;97353.20;;;16.60
68027;BMP180;54819;48.030;14.710;2023-06-19T00:48:15;97355.20;;;16.60
68027;BMP180;54819;48.030;14.710;2023-06-19T00:50:42;97357.20;;;16.60
68027;BMP180;54819;48.030;14.710;2023-06-19T00:53:08;97352.80;;;16.60
68027;BMP180;54819;48.030;14.710;2023-06-19T00:55:36;97355.80;;;16.60
68027;BMP180;54819;48.030;14.710;2023-06-19T00:58:03;97353.80;;;16.60
68027;BMP180;54819;48.030;14.710;2023-06-19T01:00:30;97355.20;;;16.52
68027;BMP180;54819;48.030;14.710;2023-06-19T01:02:58;97353.40;;;16.50
68027;BMP180;54819;48.030;14.710;2023-06-19T01:05:27;97353.40;;;16.50
68027;BMP180;54819;48.030;14.710;2023-06-19T01:08:06;97352.80;;;16.50
68027;BMP180;54819;48.030;14.710;2023-06-19T01:10:39;97357.60;;;16.50
68027;BMP180;54819;48.030;14.710;2023-06-19T01:13:12;97355.00;;;16.42
68027;BMP180;54819;48.030;14.710;2023-06-19T01:15:41;97355.40;;;16.40
68027;BMP180;54819;48.030;14.710;2023-06-19T01:18:09;97354.80;;;16.40
68027;BMP180;54819;48.030;14.710;2023-06-19T01:20:38;97354.00;;;16.40
68027;BMP180;54819;48.030;14.710;2023-06-19T01:23:08;97352.40;;;16.40
68027;BMP180;54819;48.030;14.710;2023-06-19T01:25:35;97355.00;;;16.40
68027;BMP180;54819;48.030;14.710;2023-06-19T01:28:03;97351.80;;;16.30
68027;BMP180;54819;48.030;14.710;2023-06-19T01:30:33;97355.20;;;16.30
68027;BMP180;54819;48.030;14.710;2023-06-19T01:33:11;97354.80;;;16.30
68027;BMP180;54819;48.030;14.710;2023-06-19T01:35:42;97358.40;;;16.20
68027;BMP180;54819;48.030;14.710;2023-06-19T01:38:10;97355.60;;;16.20
68027;BMP180;54819;48.030;14.710;2023-06-19T01:40:40;97348.40;;;16.20
68027;BMP180;54819;48.030;14.710;2023-06-19T01:43:07;97349.40;;;16.16
68027;BMP180;54819;48.030;14.710;2023-06-19T01:45:34;97349.80;;;16.10
68027;BMP180;54819;48.030;14.710;2023-06-19T01:48:01;97348.20;;;16.10
68027;BMP180;54819;48.030;14.710;2023-06-19T01:50:29;97343.80;;;16.00
68027;BMP180;54819;48.030;14.710;2023-06-19T01:52:55;97347.20;;;16.00
68027;BMP180;54819;48.030;14.710;2023-06-19T01:55:22;97351.40;;;16.00
68027;BMP180;54819;48.030;14.710;2023-06-19T01:57:49;97350.00;;;15.90
68027;BMP180;54819;48.030;14.710;2023-06-19T02:00:16;97350.20;;;15.90
68027;BMP180;54819;48.030;14.710;2023-06-19T02:02:43;97347.60;;;15.90
68027;BMP180;54819;48.030;14.710;2023-06-19T02:05:13;97351.20;;;15.80
68027;BMP180;54819;48.030;14.710;2023-06-19T02:07:40;97355.60;;;15.80
68027;BMP180;54819;48.030;14.710;2023-06-19T02:10:07;97355.20;;;15.70
68027;BMP180;54819;48.030;14.710;2023-06-19T02:12:35;97354.00;;;15.70
68027;BMP180;54819;48.030;14.710;2023-06-19T02:15:01;97356.60;;;15.70
68027;BMP180;54819;48.030;14.710;2023-06-19T02:17:28;97356.00;;;15.70
68027;BMP180;54819;48.030;14.710;2023-06-19T02:19:55;97359.00;;;15.60
68027;BMP180;54819;48.030;14.710;2023-06-19T02:22:23;97354.60;;;15.60
68027;BMP180;54819;48.030;14.710;2023-06-19T02:24:49;97358.60;;;15.54
68027;BMP180;54819;48.030;14.710;2023-06-19T02:27:16;97361.80;;;15.50
68027;BMP180;54819;48.030;14.710;2023-06-19T02:29:43;97365.40;;;15.50
68027;BMP180;54819;48.030;14.710;2023-06-19T02:32:10;97363.80;;;15.40
68027;BMP180;54819;48.030;14.710;2023-06-19T02:34:37;97360.60;;;15.40
68027;BMP180;54819;48.030;14.710;2023-06-19T02:37:05;97361.60;;;15.40
68027;BMP180;54819;48.030;14.710;2023-06-19T02:39:32;97367.00;;;15.40
68027;BMP180;54819;48.030;14.710;2023-06-19T02:41:58;97367.20;;;15.40
68027;BMP180;54819;48.030;14.710;2023-06-19T02:44:27;97363.40;;;15.32
68027;BMP180;54819;48.030;14.710;2023-06-19T02:46:54;97360.20;;;15.30
68027;BMP180;54819;48.030;14.710;2023-06-19T02:49:21;97358.60;;;15.30
68027;BMP180;54819;48.030;14.710;2023-06-19T02:51:48;97355.80;;;15.30
68027;BMP180;54819;48.030;14.710;2023-06-19T02:54:15;97350.80;;;15.26
68027;BMP180;54819;48.030;14.710;2023-06-19T02:56:42;97352.20;;;15.20
68027;BMP180;54819;48.030;14.710;2023-06-19T02:59:08;97359.60;;;15.20
68027;BMP180;54819;48.030;14.710;2023-06-19T03:01:35;97359.00;;;15.20
68027;BMP180;54819;48.030;14.710;2023-06-19T03:04:02;97362.80;;;15.20
68027;BMP180;54819;48.030;14.710;2023-06-19T03:06:29;97362.80;;;15.20
68027;BMP180;54819;48.030;14.710;2023-06-19T03:08:56;97364.40;;;15.20
68027;BMP180;54819;48.030;14.710;2023-06-19T03:11:23;97362.00;;;15.20
68027;BMP180;54819;48.030;14.710;2023-06-19T03:13:53;97364.60;;;15.20
68027;BMP180;54819;48.030;14.710;2023-06-19T03:16:21;97367.60;;;15.16
68027;BMP180;54819;48.030;14.710;2023-06-19T03:18:48;97371.40;;;15.14
68027;BMP180;54819;48.030;14.710;2023-06-19T03:21:19;97377.60;;;15.10
68027;BMP180;54819;48.030;14.710;2023-06-19T03:23:46;97382.20;;;15.14
68027;BMP180;54819;48.030;14.710;2023-06-19T03:26:14;97385.20;;;15.12
68027;BMP180;54819;48.030;14.710;2023-06-19T03:28:41;97383.00;;;15.18
68027;BMP180;54819;48.030;14.710;2023-06-19T03:31:08;97387.20;;;15.18
68027;BMP180;54819;48.030;14.710;2023-06-19T03:33:35;97393.40;;;15.20
68027;BMP180;54819;48.030;14.710;2023-06-19T03:36:02;97396.00;;;15.20
68027;BMP180;54819;48.030;14.710;2023-06-19T03:38:37;97392.40;;;15.20
68027;BMP180;54819;48.030;14.710;2023-06-19T03:41:04;97392.60;;;15.30
68027;BMP180;54819;48.030;14.710;2023-06-19T03:43:30;97395.60;;;15.30
68027;BMP180;54819;48.030;14.710;2023-06-19T03:45:57;97393.20;;;15.30
68027;BMP180;54819;48.030;14.710;2023-06-19T03:48:24;97395.20;;;15.40
68027;BMP180;54819;48.030;14.710;2023-06-19T03:50:51;97397.20;;;15.40
68027;BMP180;54819;48.030;14.710;2023-06-19T03:53:17;97403.60;;;15.40
68027;BMP180;54819;48.030;14.710;2023-06-19T03:55:44;97403.60;;;15.50
68027;BMP180;54819;48.030;14.710;2023-06-19T03:58:11;97398.00;;;15.54
68027;BMP180;54819;48.030;14.710;2023-06-19T04:00:38;97405.60;;;15.60
68027;BMP180;54819;48.030;14.710;2023-06-19T04:03:04;97403.40;;;15.70
68027;BMP180;54819;48.030;14.710;2023-06-19T04:05:31;97411.20;;;15.80
68027;BMP180;54819;48.030;14.710;2023-06-19T04:07:58;97405.20;;;16.00
68027;BMP180;54819;48.030;14.710;2023-06-19T04:10:24;97410.60;;;16.20
68027;BMP180;54819;48.030;14.710;2023-06-19T04:12:53;97416.20;;;16.18
68027;BMP180;54819;48.030;14.710;2023-06-19T04:15:22;97414.60;;;16.20
68027;BMP180;54819;48.030;14.710;2023-06-19T04:17:49;97416.20;;;16.30
68027;BMP180;54819;48.030;14.710;2023-06-19T04:20:16;97415.20;;;16.40
68027;BMP180;54819;48.030;14.710;2023-06-19T04:22:45;97413.40;;;16.48
68027;BMP180;54819;48.030;14.710;2023-06-19T04:25:12;97414.40;;;16.60
68027;BMP180;54819;48.030;14.710;2023-06-19T04:27:39;97418.00;;;16.70
68027;BMP180;54819;48.030;14.710;2023-06-19T04:30:06;97421.20;;;16.80
68027;BMP180;54819;48.030;14.710;2023-06-19T04:32:34;97420.40;;;16.98
68027;BMP180;54819;48.030;14.710;2023-06-19T04:35:02;97419.00;;;17.10
68027;BMP180;54819;48.030;14.710;2023-06-19T04:37:29;97419.20;;;17.30
68027;BMP180;54819;48.030;14.710;2023-06-19T04:39:56;97418.60;;;17.46
68027;BMP180;54819;48.030;14.710;2023-06-19T04:42:23;97408.40;;;17.68
68027;BMP180;54819;48.030;14.710;2023-06-19T04:44:49;97379.00;;;19.24
68027;BMP180;54819;48.030;14.710;2023-06-19T04:47:19;97397.40;;;19.90
68027;BMP180;54819;48.030;14.710;2023-06-19T04:49:46;97369.20;;;20.86
68027;BMP180;54819;48.030;14.710;2023-06-19T04:52:13;97366.80;;;22.38
68027;BMP180;54819;48.030;14.710;2023-06-19T04:54:40;97368.80;;;23.78
68027;BMP180;54819;48.030;14.710;2023-06-19T04:57:06;97375.80;;;24.92
68027;BMP180;54819;48.030;14.710;2023-06-19T04:59:33;97376.80;;;25.76
68027;BMP180;54819;48.030;14.710;2023-06-19T05:02:00;97381.60;;;26.64
68027;BMP180;54819;48.030;14.710;2023-06-19T05:04:27;97387.20;;;27.38
68027;BMP180;54819;48.030;14.710;2023-06-19T05:06:53;97393.40;;;28.06
68027;BMP180;54819;48.030;14.710;2023-06-19T05:09:20;97394.20;;;28.74
68027;BMP180;54819;48.030;14.710;2023-06-19T05:11:47;97401.40;;;29.42
68027;BMP180;54819;48.030;14.710;2023-06-19T05:14:14;97397.40;;;30.12
68027;BMP180;54819;48.030;14.710;2023-06-19T05:16:40;97398.00;;;30.78
68027;BMP180;54819;48.030;14.710;2023-06-19T05:19:08;97402.20;;;31.40
68027;BMP180;54819;48.030;14.710;2023-06-19T05:21:35;97406.60;;;31.80
68027;BMP180;54819;48.030;14.710;2023-06-19T05:24:02;97433.20;;;30.82
68027;BMP180;54819;48.030;14.710;2023-06-19T05:26:29;97431.80;;;29.36
68027;BMP180;54819;48.030;14.710;2023-06-19T05:28:56;97432.20;;;28.24
68027;BMP180;54819;48.030;14.710;2023-06-19T05:31:22;97436.00;;;27.30
68027;BMP180;54819;48.030;14.710;2023-06-19T05:33:49;97439.60;;;26.40
68027;BMP180;54819;48.030;14.710;2023-06-19T05:36:16;97444.80;;;25.62
68027;BMP180;54819;48.030;14.710;2023-06-19T05:38:43;97449.20;;;25.06
68027;BMP180;54819;48.030;14.710;2023-06-19T05:41:09;97452.20;;;24.62
68027;BMP180;54819;48.030;14.710;2023-06-19T05:43:36;97450.00;;;24.30
68027;BMP180;54819;48.030;14.710;2023-06-19T05:46:03;97450.40;;;23.90
68027;BMP180;54819;48.030;14.710;2023-06-19T05:48:30;97452.00;;;23.60
68027;BMP180;54819;48.030;14.710;2023-06-19T05:50:56;97450.80;;;23.30
68027;BMP180;54819;48.030;14.710;2023-06-19T05:53:23;97458.40;;;23.00
68027;BMP180;54819;48.030;14.710;2023-06-19T05:55:50;97466.60;;;22.80
68027;BMP180;54819;48.030;14.710;2023-06-19T05:58:17;97472.60;;;22.60
68027;BMP180;54819;48.030;14.710;2023-06-19T06:00:47;97478.80;;;22.38
68027;BMP180;54819;48.030;14.710;2023-06-19T06:03:14;97472.60;;;22.20
68027;BMP180;54819;48.030;14.710;2023-06-19T06:05:41;97472.60;;;22.06
68027;BMP180;54819;48.030;14.710;2023-06-19T06:08:08;97476.60;;;21.92
68027;BMP180;54819;48.030;14.710;2023-06-19T06:10:35;97479.40;;;21.80
68027;BMP180;54819;48.030;14.710;2023-06-19T06:13:02;97477.80;;;21.76
68027;BMP180;54819;48.030;14.710;2023-06-19T06:15:28;97475.60;;;21.70
68027;BMP180;54819;48.030;14.710;2023-06-19T06:17:55;97474.60;;;21.60
68027;BMP180;54819;48.030;14.710;2023-06-19T06:20:22;97479.00;;;21.60
68027;BMP180;54819;48.030;14.710;2023-06-19T06:22:49;97484.00;;;21.58
68027;BMP180;54819;48.030;14.710;2023-06-19T06:25:16;97486.60;;;21.60
68027;BMP180;54819;48.030;14.710;2023-06-19T06:27:43;97486.60;;;21.60
68027;BMP180;54819;48.030;14.710;2023-06-19T06:30:11;97487.20;;;21.60
68027;BMP180;54819;48.030;14.710;2023-06-19T06:32:38;97491.00;;;21.70
68027;BMP180;54819;48.030;14.710;2023-06-19T06:35:05;97493.80;;;21.70
68027;BMP180;54819;48.030;14.710;2023-06-19T06:37:32;97496.80;;;21.80
68027;BMP180;54819;48.030;14.710;2023-06-19T06:39:59;97500.00;;;21.80
68027;BMP180;54819;48.030;14.710;2023-06-19T06:42:25;97499.40;;;21.90
68027;BMP180;54819;48.030;14.710;2023-06-19T06:44:53;97503.80;;;21.90
68027;BMP180;54819;48.030;14.710;2023-06-19T06:47:19;97498.20;;;21.90
68027;BMP180;54819;48.030;14.710;2023-06-19T06:49:46;97497.40;;;22.00
68027;BMP180;54819;48.030;14.710;2023-06-19T06:52:13;97499.80;;;22.10
68027;BMP180;54819;48.030;14.710;2023-06-19T06:54:40;97508.80;;;22.20
68027;BMP180;54819;48.030;14.710;2023-06-19T06:57:06;97506.20;;;22.28
68027;BMP180;54819;48.030;14.710;2023-06-19T06:59:33;97511.60;;;22.32
68027;BMP180;54819;48.030;14.710;2023-06-19T07:02:00;97515.60;;;22.40
68027;BMP180;54819;48.030;14.710;2023-06-19T07:04:27;97517.00;;;22.50
68027;BMP180;54819;48.030;14.710;2023-06-19T07:06:54;97511.80;;;22.64
68027;BMP180;54819;48.030;14.710;2023-06-19T07:09:20;97515.40;;;22.80
68027;BMP180;54819;48.030;14.710;2023-06-19T07:11:48;97515.60;;;22.90
68027;BMP180;54819;48.030;14.710;2023-06-19T07:14:18;97513.80;;;23.10
68027;BMP180;54819;48.030;14.710;2023-06-19T07:16:45;97511.20;;;23.28
68027;BMP180;54819;48.030;14.710;2023-06-19T07:19:12;97504.00;;;23.50
68027;BMP180;54819;48.030;14.710;2023-06-19T07:21:40;97494.00;;;23.74
68027;BMP180;54819;48.030;14.710;2023-06-19T07:24:07;97499.80;;;23.92
68027;BMP180;54819;48.030;14.710;2023-06-19T07:26:34;97498.20;;;24.18
68027;BMP180;54819;48.030;14.710;2023-06-19T07:29:00;97499.20;;;24.40
68027;BMP180;54819;48.030;14.710;2023-06-19T07:31:27;97504.00;;;24.58
68027;BMP180;54819;48.030;14.710;2023-06-19T07:33:54;97510.80;;;24.60
68027;BMP180;54819;48.030;14.710;2023-06-19T07:36:21;97512.20;;;24.70
68027;BMP180;54819;48.030;14.710;2023-06-19T07:38:47;97512.60;;;24.60
68027;BMP180;54819;48.030;14.710;2023-06-19T07:41:14;97513.60;;;24.60
68027;BMP180;54819;48.030;14.710;2023-06-19T07:43:41;97511.80;;;24.74
68027;BMP180;54819;48.030;14.710;2023-06-19T07:46:09;97506.20;;;24.90
68027;BMP180;54819;48.030;14.710;2023-06-19T07:48:36;97510.20;;;25.10
68027;BMP180;54819;48.030;14.710;2023-06-19T07:51:03;97509.60;;;25.40
68027;BMP180;54819;48.030;14.710;2023-06-19T07:53:30;97514.20;;;25.76
68027;BMP180;54819;48.030;14.710;2023-06-19T07:55:57;97517.60;;;26.26
68027;BMP180;54819;48.030;14.710;2023-06-19T07:58:23;97528.40;;;26.62
68027;BMP180;54819;48.030;14.710;2023-06-19T08:00:50;97527.20;;;26.90
68027;BMP180;54819;48.030;14.710;2023-06-19T08:03:17;97529.40;;;27.10
68027;BMP180;54819;48.030;14.710;2023-06-19T08:05:44;97524.60;;;27.28
68027;BMP180;54819;48.030;14.710;2023-06-19T08:08:12;97523.20;;;27.50
68027;BMP180;54819;48.030;14.710;2023-06-19T08:10:39;97525.60;;;27.70
68027;BMP180;54819;48.030;14.710;2023-06-19T08:13:07;97525.60;;;27.80
68027;BMP180;54819;48.030;14.710;2023-06-19T08:15:34;97530.00;;;27.80
68027;BMP180;54819;48.030;14.710;2023-06-19T08:18:01;97529.20;;;27.80
68027;BMP180;54819;48.030;14.710;2023-06-19T08:20:30;97532.00;;;27.70
68027;BMP180;54819;48.030;14.710;2023-06-19T08:22:59;97528.60;;;27.60
68027;BMP180;54819;48.030;14.710;2023-06-19T08:25:25;97532.80;;;27.50
68027;BMP180;54819;48.030;14.710;2023-06-19T08:27:52;97535.00;;;27.40
68027;BMP180;54819;48.030;14.710;2023-06-19T08:30:19;97537.60;;;27.32
68027;BMP180;54819;48.030;14.710;2023-06-19T08:32:46;97544.60;;;27.30
68027;BMP180;54819;48.030;14.710;2023-06-19T08:35:15;97543.40;;;27.20
68027;BMP180;54819;48.030;14.710;2023-06-19T08:37:43;97539.60;;;27.18
68027;BMP180;54819;48.030;14.710;2023-06-19T08:40:12;97538.60;;;27.10
68027;BMP180;54819;48.030;14.710;2023-06-19T08:42:38;97539.40;;;27.10
68027;BMP180;54819;48.030;14.710;2023-06-19T08:45:07;97546.40;;;27.10
68027;BMP180;54819;48.030;14.710;2023-06-19T08:47:34;97549.20;;;27.10
68027;BMP180;54819;48.030;14.710;2023-06-19T08:50:01;97547.80;;;27.00
68027;BMP180;54819;48.030;14.710;2023-06-19T08:52:28;97555.40;;;27.00
68027;BMP180;54819;48.030;14.710;2023-06-19T08:54:55;97560.40;;;26.90
68027;BMP180;54819;48.030;14.710;2023-06-19T08:57:33;97559.20;;;26.90
68027;BMP180;54819;48.030;14.710;2023-06-19T08:59:59;97555.60;;;26.96
68027;BMP180;54819;48.030;14.710;2023-06-19T09:02:45;97554.80;;;27.00
68027;BMP180;54819;48.030;14.710;2023-06-19T09:05:26;97552.60;;;27.20
68027;BMP180;54819;48.030;14.710;2023-06-19T09:07:59;97551.00;;;27.40
68027;BMP180;54819;48.030;14.710;2023-06-19T09:10:29;97550.40;;;27.52
68027;BMP180;54819;48.030;14.710;2023-06-19T09:13:04;97558.40;;;27.70
68027;BMP180;54819;48.030;14.710;2023-06-19T09:15:34;97557.20;;;27.90
68027;BMP180;54819;48.030;14.710;2023-06-19T09:18:11;97555.20;;;28.10
68027;BMP180;54819;48.030;14.710;2023-06-19T09:20:41;97560.00;;;28.30
68027;BMP180;54819;48.030;14.710;2023-06-19T09:23:12;97553.40;;;28.50
68027;BMP180;54819;48.030;14.710;2023-06-19T09:25:44;97558.60;;;28.52
68027;BMP180;54819;48.030;14.710;2023-06-19T09:28:25;97556.20;;;28.66
68027;BMP180;54819;48.030;14.710;2023-06-19T09:30:57;97555.40;;;28.80
68027;BMP180;54819;48.030;14.710;2023-06-19T09:33:29;97554.00;;;28.90
68027;BMP180;54819;48.030;14.710;2023-06-19T09:35:57;97550.20;;;29.04
68027;BMP180;54819;48.030;14.710;2023-06-19T09:38:28;97557.60;;;29.10
68027;BMP180;54819;48.030;14.710;2023-06-19T09:40:56;97559.40;;;29.18
68027;BMP180;54819;48.030;14.710;2023-06-19T09:43:30;97553.20;;;29.26
68027;BMP180;54819;48.030;14.710;2023-06-19T09:45:57;97555.60;;;29.40
68027;BMP180;54819;48.030;14.710;2023-06-19T09:48:31;97554.00;;;29.38
68027;BMP180;54819;48.030;14.710;2023-06-19T09:51:10;97550.60;;;29.30
68027;BMP180;54819;48.030;14.710;2023-06-19T09:53:39;97549.40;;;29.40
68027;BMP180;54819;48.030;14.710;2023-06-19T09:56:07;97547.60;;;29.40
68027;BMP180;54819;48.030;14.710;2023-06-19T09:58:35;97549.60;;;29.30
68027;BMP180;54819;48.030;14.710;2023-06-19T10:01:04;97549.00;;;29.30
68027;BMP180;54819;48.030;14.710;2023-06-19T10:03:32;97553.40;;;29.30
68027;BMP180;54819;48.030;14.710;2023-06-19T10:06:01;97553.40;;;29.24
68027;BMP180;54819;48.030;14.710;2023-06-19T10:08:30;97546.80;;;29.20
68027;BMP180;54819;48.030;14.710;2023-06-19T10:10:58;97544.60;;;29.20
68027;BMP180;54819;48.030;14.710;2023-06-19T10:13:35;97543.60;;;29.10
68027;BMP180;54819;48.030;14.710;2023-06-19T10:16:05;97544.60;;;29.06
68027;BMP180;54819;48.030;14.710;2023-06-19T10:18:43;97549.80;;;29.00
68027;BMP180;54819;48.030;14.710;2023-06-19T10:21:17;97545.40;;;28.98
68027;BMP180;54819;48.030;14.710;2023-06-19T10:23:57;97545.20;;;29.00
68027;BMP180;54819;48.030;14.710;2023-06-19T10:26:34;97545.00;;;29.10
68027;BMP180;54819;48.030;14.710;2023-06-19T10:29:12;97541.20;;;29.18
68027;BMP180;54819;48.030;14.710;2023-06-19T10:31:39;97539.20;;;29.20
68027;BMP180;54819;48.030;14.710;2023-06-19T10:34:06;97539.20;;;29.30
68027;BMP180;54819;48.030;14.710;2023-06-19T10:36:33;97539.60;;;29.30
68027;BMP180;54819;48.030;14.710;2023-06-19T10:38:59;97541.60;;;29.30
68027;BMP180;54819;48.030;14.710;2023-06-19T10:41:26;97536.60;;;29.30
68027;BMP180;54819;48.030;14.710;2023-06-19T10:44:03;97537.40;;;29.30
68027;BMP180;54819;48.030;14.710;2023-06-19T10:46:33;97535.20;;;29.30
68027;BMP180;54819;48.030;14.710;2023-06-19T10:49:00;97535.00;;;29.30
68027;BMP180;54819;48.030;14.710;2023-06-19T10:51:28;97529.60;;;29.20
68027;BMP180;54819;48.030;14.710;2023-06-19T10:53:55;97532.20;;;29.20
68027;BMP180;54819;48.030;14.710;2023-06-19T10:56:24;97525.80;;;29.10
68027;BMP180;54819;48.030;14.710;2023-06-19T10:59:02;97531.20;;;29.10
68027;BMP180;54819;48.030;14.710;2023-06-19T11:01:37;97526.80;;;29.10
68027;BMP180;54819;48.030;14.710;2023-06-19T11:04:09;97527.80;;;29.10
68027;BMP180;54819;48.030;14.710;2023-06-19T11:06:37;97520.40;;;29.10
68027;BMP180;54819;48.030;14.710;2023-06-19T11:09:06;97519.20;;;29.10
68027;BMP180;54819;48.030;14.710;2023-06-19T11:11:44;97517.40;;;29.18
68027;BMP180;54819;48.030;14.710;2023-06-19T11:14:13;97513.80;;;29.20
68027;BMP180;54819;48.030;14.710;2023-06-19T11:16:42;97507.80;;;29.20
68027;BMP180;54819;48.030;14.710;2023-06-19T11:19:15;97503.40;;;29.20
68027;BMP180;54819;48.030;14.710;2023-06-19T11:21:46;97502.60;;;29.30
68027;BMP180;54819;48.030;14.710;2023-06-19T11:24:14;97507.20;;;29.30
68027;BMP180;54819;48.030;14.710;2023-06-19T11:26:42;97504.00;;;29.30
68027;BMP180;54819;48.030;14.710;2023-06-19T11:29:24;97500.20;;;29.30
68027;BMP180;54819;48.030;14.710;2023-06-19T11:32:03;97503.20;;;29.34
68027;BMP180;54819;48.030;14.710;2023-06-19T11:34:32;97495.40;;;29.40
68027;BMP180;54819;48.030;14.710;2023-06-19T11:36:59;97493.80;;;29.40
68027;BMP180;54819;48.030;14.710;2023-06-19T11:39:27;97497.40;;;29.40
68027;BMP180;54819;48.030;14.710;2023-06-19T11:41:54;97497.20;;;29.40
68027;BMP180;54819;48.030;14.710;2023-06-19T11:44:21;97497.20;;;29.40
68027;BMP180;54819;48.030;14.710;2023-06-19T11:46:48;97494.80;;;29.50
68027;BMP180;54819;48.030;14.710;2023-06-19T11:49:16;97492.80;;;29.60
68027;BMP180;54819;48.030;14.710;2023-06-19T11:51:46;97492.60;;;29.60
68027;BMP180;54819;48.030;14.710;2023-06-19T11:54:14;97489.60;;;29.70
68027;BMP180;54819;48.030;14.710;2023-06-19T11:56:41;97489.20;;;29.70
68027;BMP180;54819;48.030;14.710;2023-06-19T11:59:08;97485.60;;;29.70
68027;BMP180;54819;48.030;14.710;2023-06-19T12:01:36;97485.00;;;29.70
68027;BMP180;54819;48.030;14.710;2023-06-19T12:04:03;97480.80;;;29.76
68027;BMP180;54819;48.030;14.710;2023-06-19T12:06:30;97483.60;;;29.80
68027;BMP180;54819;48.030;14.710;2023-06-19T12:08:58;97480.20;;;29.84
68027;BMP180;54819;48.030;14.710;2023-06-19T12:11:25;97484.20;;;29.90
68027;BMP180;54819;48.030;14.710;2023-06-19T12:13:52;97485.20;;;30.00
68027;BMP180;54819;48.030;14.710;2023-06-19T12:16:20;97481.80;;;30.10
68027;BMP180;54819;48.030;14.710;2023-06-19T12:18:47;97479.60;;;30.10
68027;BMP180;54819;48.030;14.710;2023-06-19T12:21:14;97473.40;;;30.20
68027;BMP180;54819;48.030;14.710;2023-06-19T12:24:00;97479.80;;;30.30
68027;BMP180;54819;48.030;14.710;2023-06-19T12:26:27;97475.40;;;30.30
68027;BMP180;54819;48.030;14.710;2023-06-19T12:28:54;97480.20;;;30.40
68027;BMP180;54819;48.030;14.710;2023-06-19T12:31:21;97478.20;;;30.40
68027;BMP180;54819;48.030;14.710;2023-06-19T12:33:48;97477.40;;;30.50
68027;BMP180;54819;48.030;14.710;2023-06-19T12:36:15;97474.80;;;30.60
68027;BMP180;54819;48.030;14.710;2023-06-19T12:38:42;97472.60;;;30.58
68027;BMP180;54819;48.030;14.710;2023-06-19T12:41:09;97478.20;;;30.50
68027;BMP180;54819;48.030;14.710;2023-06-19T12:43:36;97473.60;;;30.44
68027;BMP180;54819;48.030;14.710;2023-06-19T12:46:02;97470.60;;;30.40
68027;BMP180;54819;48.030;14.710;2023-06-19T12:48:29;97467.80;;;30.40
68027;BMP180;54819;48.030;14.710;2023-06-19T12:50:56;97463.00;;;30.40
68027;BMP180;54819;48.030;14.710;2023-06-19T12:53:23;97464.80;;;30.50
68027;BMP180;54819;48.030;14.710;2023-06-19T12:55:53;97463.60;;;30.50
68027;BMP180;54819;48.030;14.710;2023-06-19T12:58:28;97461.60;;;30.56
68027;BMP180;54819;48.030;14.710;2023-06-19T13:00:55;97463.20;;;30.60
68027;BMP180;54819;48.030;14.710;2023-06-19T13:03:22;97461.00;;;30.60
68027;BMP180;54819;48.030;14.710;2023-06-19T13:05:49;97459.40;;;30.62
68027;BMP180;54819;48.030;14.710;2023-06-19T13:08:16;97454.20;;;30.70
68027;BMP180;54819;48.030;14.710;2023-06-19T13:10:43;97453.40;;;30.70
68027;BMP180;54819;48.030;14.710;2023-06-19T13:13:11;97451.80;;;30.70
68027;BMP180;54819;48.030;14.710;2023-06-19T13:15:38;97449.00;;;30.70
68027;BMP180;54819;48.030;14.710;2023-06-19T13:18:05;97448.80;;;30.80
68027;BMP180;54819;48.030;14.710;2023-06-19T13:20:31;97447.40;;;30.70
68027;BMP180;54819;48.030;14.710;2023-06-19T13:22:58;97443.40;;;30.70
68027;BMP180;54819;48.030;14.710;2023-06-19T13:25:25;97442.40;;;30.60
68027;BMP180;54819;48.030;14.710;2023-06-19T13:27:52;97444.80;;;30.60
68027;BMP180;54819;48.030;14.710;2023-06-19T13:30:18;97442.60;;;30.54
68027;BMP180;54819;48.030;14.710;2023-06-19T13:32:45;97436.20;;;30.50
68027;BMP180;54819;48.030;14.710;2023-06-19T13:35:12;97436.40;;;30.58
68027;BMP180;54819;48.030;14.710;2023-06-19T13:37:39;97434.20;;;30.60
68027;BMP180;54819;48.030;14.710;2023-06-19T13:40:06;97440.20;;;30.68
68027;BMP180;54819;48.030;14.710;2023-06-19T13:42:34;97438.40;;;30.70
68027;BMP180;54819;48.030;14.710;2023-06-19T13:45:05;97437.00;;;30.70
68027;BMP180;54819;48.030;14.710;2023-06-19T13:47:32;97442.40;;;30.80
68027;BMP180;54819;48.030;14.710;2023-06-19T13:49:59;97442.00;;;30.80
68027;BMP180;54819;48.030;14.710;2023-06-19T13:52:26;97438.40;;;30.80
68027;BMP180;54819;48.030;14.710;2023-06-19T13:54:54;97436.80;;;30.90
68027;BMP180;54819;48.030;14.710;2023-06-19T13:57:22;97435.40;;;30.90
68027;BMP180;54819;48.030;14.710;2023-06-19T13:59:48;97436.20;;;31.00
68027;BMP180;54819;48.030;14.710;2023-06-19T14:02:16;97434.00;;;31.00